PWSweather.com
Personal Weather Stations
Station Observations
IRIVIRED2
île Maurice, Petit RaffrayMU

île MauricePetit RaffrayMU

Lat: -20.02533, Lon: 57.61883

Elevation: 183

Station Type: Davis Vantage Pro2 plus

http://www.meteomauritius.altervista.org

High Low Average
Temperature 85.2°F29.6°F 78.3°F25.7°F 81.4°F27.4°F
Dew Point 75.5°F24.2°F 71.9°F22.2°F 73.6°F23.1°F
Winds 12.7 mph NE20.4 mph NE Calm Calm 5.8 mph 9.3 mph
Wind Gusts 23.0 mph37.0 mph -- 10.7 mph17.2 mph
Humidity 87% 67% 78%
Pressure 30.03 in1016.90 in 29.95 in1014.20 in -
Precipitation 0.00 in0.00 in - -
Hour Temp Dew Point Humidity Winds Wind Gusts Pressure Precip Precip Rate Daily Precip Total
12:00 AM 79.3°F26.3°C 75.1°F23.9°C 87% 2.3 mph E3.7 kmh E 3.5 mph5.6 kmh 30.02 in1016.6 mb - 0.00 in0.0 mm 0.00 in0.0 mm
12:10 AM 79.4°F26.3°C 74.8°F23.8°C 86% 2.3 mph E3.7 kmh E 5.8 mph9.3 kmh 30.02 in1016.6 mb - 0.00 in0.0 mm 0.00 in0.0 mm
12:20 AM 79.4°F26.3°C 74.8°F23.8°C 86% 2.3 mph E3.7 kmh E 8.1 mph13.0 kmh 30.02 in1016.6 mb - 0.00 in0.0 mm 0.00 in0.0 mm
12:30 AM 79.4°F26.3°C 74.8°F23.8°C 86% 1.2 mph E1.9 kmh E 3.5 mph5.6 kmh 30.01 in1016.3 mb - 0.00 in0.0 mm 0.00 in0.0 mm
12:40 AM 79.3°F26.3°C 74.8°F23.8°C 86% Calm Calm -- 30.01 in1016.3 mb - 0.00 in0.0 mm 0.00 in0.0 mm
12:50 AM 79.2°F26.2°C 75.0°F23.9°C 87% 1.2 mph ESE1.9 kmh ESE 5.8 mph9.3 kmh 30.01 in1016.3 mb - 0.00 in0.0 mm 0.00 in0.0 mm
01:00 AM 79.1°F26.2°C 74.9°F23.8°C 87% 1.2 mph E1.9 kmh E 4.6 mph7.4 kmh 30.00 in1015.9 mb - 0.00 in0.0 mm 0.00 in0.0 mm
01:10 AM 79.1°F26.2°C 74.9°F23.8°C 87% 1.2 mph SE1.9 kmh SE 2.3 mph3.7 kmh 30.00 in1015.9 mb - 0.00 in0.0 mm 0.00 in0.0 mm
01:20 AM 79.2°F26.2°C 75.0°F23.9°C 87% 2.3 mph E3.7 kmh E 6.9 mph11.1 kmh 30.00 in1015.9 mb - 0.00 in0.0 mm 0.00 in0.0 mm
01:30 AM 79.2°F26.2°C 75.0°F23.9°C 87% 1.2 mph ESE1.9 kmh ESE 3.5 mph5.6 kmh 30.00 in1015.9 mb - 0.00 in0.0 mm 0.00 in0.0 mm
01:40 AM 79.2°F26.2°C 75.0°F23.9°C 87% 2.3 mph E3.7 kmh E 5.8 mph9.3 kmh 30.00 in1015.9 mb - 0.00 in0.0 mm 0.00 in0.0 mm
01:50 AM 79.2°F26.2°C 75.0°F23.9°C 87% 2.3 mph E3.7 kmh E 5.8 mph9.3 kmh 30.00 in1015.9 mb - 0.00 in0.0 mm 0.00 in0.0 mm
02:00 AM 79.2°F26.2°C 75.0°F23.9°C 87% 2.3 mph ESE3.7 kmh ESE 5.8 mph9.3 kmh 30.00 in1015.9 mb - 0.00 in0.0 mm 0.00 in0.0 mm
02:10 AM 79.2°F26.2°C 75.0°F23.9°C 87% 1.2 mph E1.9 kmh E 4.6 mph7.4 kmh 30.00 in1015.9 mb - 0.00 in0.0 mm 0.00 in0.0 mm
02:20 AM 79.1°F26.2°C 74.9°F23.8°C 87% 3.5 mph E5.6 kmh E 4.6 mph7.4 kmh 30.00 in1015.9 mb - 0.00 in0.0 mm 0.00 in0.0 mm
02:30 AM 79.0°F26.1°C 74.8°F23.8°C 87% 2.3 mph ESE3.7 kmh ESE 5.8 mph9.3 kmh 30.00 in1015.9 mb - 0.00 in0.0 mm 0.00 in0.0 mm
02:40 AM 79.2°F26.2°C 75.0°F23.9°C 87% 2.3 mph E3.7 kmh E 4.6 mph7.4 kmh 30.00 in1015.9 mb - 0.00 in0.0 mm 0.00 in0.0 mm
02:50 AM 79.1°F26.2°C 74.9°F23.8°C 87% 3.5 mph E5.6 kmh E 8.1 mph13.0 kmh 30.00 in1015.9 mb - 0.00 in0.0 mm 0.00 in0.0 mm
03:00 AM 79.0°F26.1°C 74.8°F23.8°C 87% 2.3 mph E3.7 kmh E 3.5 mph5.6 kmh 30.00 in1015.9 mb - 0.00 in0.0 mm 0.00 in0.0 mm
03:10 AM 78.9°F26.1°C 74.7°F23.7°C 87% 2.3 mph E3.7 kmh E 5.8 mph9.3 kmh 29.99 in1015.6 mb - 0.00 in0.0 mm 0.00 in0.0 mm
03:20 AM 78.7°F25.9°C 74.5°F23.6°C 87% 2.3 mph ENE3.7 kmh ENE 3.5 mph5.6 kmh 29.99 in1015.6 mb - 0.00 in0.0 mm 0.00 in0.0 mm
03:30 AM 78.6°F25.9°C 74.4°F23.6°C 87% Calm Calm 3.5 mph5.6 kmh 29.99 in1015.6 mb - 0.00 in0.0 mm 0.00 in0.0 mm
03:40 AM 78.6°F25.9°C 74.4°F23.6°C 87% 2.3 mph ESE3.7 kmh ESE 4.6 mph7.4 kmh 30.00 in1015.9 mb - 0.00 in0.0 mm 0.00 in0.0 mm
03:50 AM 78.4°F25.8°C 74.2°F23.4°C 87% 1.2 mph SE1.9 kmh SE 3.5 mph5.6 kmh 30.00 in1015.9 mb - 0.00 in0.0 mm 0.00 in0.0 mm
04:00 AM 78.4°F25.8°C 74.2°F23.4°C 87% 2.3 mph E3.7 kmh E 5.8 mph9.3 kmh 29.99 in1015.6 mb - 0.00 in0.0 mm 0.00 in0.0 mm
04:10 AM 78.4°F25.8°C 74.2°F23.4°C 87% 3.5 mph E5.6 kmh E 5.8 mph9.3 kmh 29.99 in1015.6 mb - 0.00 in0.0 mm 0.00 in0.0 mm
04:20 AM 78.3°F25.7°C 74.1°F23.4°C 87% 3.5 mph E5.6 kmh E 5.8 mph9.3 kmh 29.99 in1015.6 mb - 0.00 in0.0 mm 0.00 in0.0 mm
04:30 AM 78.4°F25.8°C 74.2°F23.4°C 87% 2.3 mph E3.7 kmh E 4.6 mph7.4 kmh 29.99 in1015.6 mb - 0.00 in0.0 mm 0.00 in0.0 mm
04:40 AM 78.5°F25.8°C 74.3°F23.5°C 87% 3.5 mph E5.6 kmh E 9.2 mph14.8 kmh 30.00 in1015.9 mb - 0.00 in0.0 mm 0.00 in0.0 mm
04:50 AM 78.6°F25.9°C 74.1°F23.4°C 86% 2.3 mph E3.7 kmh E 3.5 mph5.6 kmh 30.00 in1015.9 mb - 0.00 in0.0 mm 0.00 in0.0 mm
05:00 AM 78.8°F26.0°C 74.3°F23.5°C 86% 1.2 mph E1.9 kmh E 5.8 mph9.3 kmh 30.00 in1015.9 mb - 0.00 in0.0 mm 0.00 in0.0 mm
05:10 AM 78.8°F26.0°C 74.6°F23.7°C 87% 1.2 mph E1.9 kmh E 6.9 mph11.1 kmh 30.00 in1015.9 mb - 0.00 in0.0 mm 0.00 in0.0 mm
05:20 AM 78.8°F26.0°C 74.6°F23.7°C 87% 3.5 mph E5.6 kmh E 6.9 mph11.1 kmh 30.00 in1015.9 mb - 0.00 in0.0 mm 0.00 in0.0 mm
05:30 AM 78.8°F26.0°C 74.3°F23.5°C 86% 3.5 mph E5.6 kmh E 6.9 mph11.1 kmh 30.01 in1016.3 mb - 0.00 in0.0 mm 0.00 in0.0 mm
05:40 AM 78.9°F26.1°C 74.3°F23.5°C 86% 4.6 mph ENE7.4 kmh ENE 8.1 mph13.0 kmh 30.01 in1016.3 mb - 0.00 in0.0 mm 0.00 in0.0 mm
05:50 AM 79.2°F26.2°C 74.6°F23.7°C 86% 4.6 mph E7.4 kmh E 8.1 mph13.0 kmh 30.02 in1016.6 mb - 0.00 in0.0 mm 0.00 in0.0 mm
06:00 AM 79.5°F26.4°C 74.9°F23.8°C 86% 2.3 mph ESE3.7 kmh ESE 8.1 mph13.0 kmh 30.02 in1016.6 mb - 0.00 in0.0 mm 0.00 in0.0 mm
06:10 AM 79.5°F26.4°C 74.6°F23.7°C 85% 4.6 mph E7.4 kmh E 9.2 mph14.8 kmh 30.02 in1016.6 mb - 0.00 in0.0 mm 0.00 in0.0 mm
06:20 AM 79.9°F26.6°C 75.0°F23.9°C 85% 3.5 mph E5.6 kmh E 8.1 mph13.0 kmh 30.02 in1016.6 mb - 0.00 in0.0 mm 0.00 in0.0 mm
06:30 AM 80.3°F26.8°C 75.4°F24.1°C 85% 3.5 mph ENE5.6 kmh ENE 6.9 mph11.1 kmh 30.02 in1016.6 mb - 0.00 in0.0 mm 0.00 in0.0 mm
06:40 AM 80.5°F26.9°C 74.5°F23.6°C 82% 3.5 mph ESE5.6 kmh ESE 6.9 mph11.1 kmh 30.03 in1016.9 mb - 0.00 in0.0 mm 0.00 in0.0 mm
06:50 AM 80.2°F26.8°C 74.6°F23.7°C 83% 8.1 mph E13.0 kmh E 11.5 mph18.5 kmh 30.02 in1016.6 mb - 0.00 in0.0 mm 0.00 in0.0 mm
07:00 AM 80.8°F27.1°C 75.5°F24.2°C 84% 2.3 mph E3.7 kmh E 5.8 mph9.3 kmh 30.02 in1016.6 mb - 0.00 in0.0 mm 0.00 in0.0 mm
07:10 AM 81.6°F27.6°C 75.2°F24.0°C 81% 8.1 mph E13.0 kmh E 15.0 mph24.1 kmh 30.02 in1016.6 mb - 0.00 in0.0 mm 0.00 in0.0 mm
07:20 AM 81.7°F27.6°C 74.5°F23.6°C 79% 6.9 mph E11.1 kmh E 11.5 mph18.5 kmh 30.02 in1016.6 mb - 0.00 in0.0 mm 0.00 in0.0 mm
07:30 AM 81.4°F27.4°C 75.0°F23.9°C 81% 5.8 mph E9.3 kmh E 12.7 mph20.4 kmh 30.02 in1016.6 mb - 0.00 in0.0 mm 0.00 in0.0 mm
07:40 AM 81.6°F27.6°C 74.5°F23.6°C 79% 9.2 mph E14.8 kmh E 13.8 mph22.2 kmh 30.02 in1016.6 mb - 0.00 in0.0 mm 0.00 in0.0 mm
07:50 AM 82.0°F27.8°C 74.4°F23.6°C 78% 9.2 mph NE14.8 kmh NE 13.8 mph22.2 kmh 30.02 in1016.6 mb - 0.00 in0.0 mm 0.00 in0.0 mm
08:00 AM 82.1°F27.8°C 74.2°F23.4°C 77% 9.2 mph E14.8 kmh E 12.7 mph20.4 kmh 30.02 in1016.6 mb - 0.00 in0.0 mm 0.00 in0.0 mm
08:10 AM 82.2°F27.9°C 74.2°F23.4°C 77% 6.9 mph E11.1 kmh E 13.8 mph22.2 kmh 30.02 in1016.6 mb - 0.00 in0.0 mm 0.00 in0.0 mm
08:20 AM 82.2°F27.9°C 73.9°F23.3°C 76% 5.8 mph E9.3 kmh E 12.7 mph20.4 kmh 30.02 in1016.6 mb - 0.00 in0.0 mm 0.00 in0.0 mm
08:30 AM 82.0°F27.8°C 74.0°F23.3°C 77% 6.9 mph E11.1 kmh E 13.8 mph22.2 kmh 30.02 in1016.6 mb - 0.00 in0.0 mm 0.00 in0.0 mm
08:40 AM 82.3°F27.9°C 74.0°F23.3°C 76% 9.2 mph ENE14.8 kmh ENE 10.4 mph16.7 kmh 30.02 in1016.6 mb - 0.00 in0.0 mm 0.00 in0.0 mm
08:50 AM 82.9°F28.3°C 74.5°F23.6°C 76% 6.9 mph E11.1 kmh E 10.4 mph16.7 kmh 30.02 in1016.6 mb - 0.00 in0.0 mm 0.00 in0.0 mm
09:00 AM 82.9°F28.3°C 73.7°F23.2°C 74% 8.1 mph ENE13.0 kmh ENE 15.0 mph24.1 kmh 30.02 in1016.6 mb - 0.00 in0.0 mm 0.00 in0.0 mm
09:10 AM 83.5°F28.6°C 74.7°F23.7°C 75% 6.9 mph ENE11.1 kmh ENE 13.8 mph22.2 kmh 30.02 in1016.6 mb - 0.00 in0.0 mm 0.00 in0.0 mm
09:20 AM 83.3°F28.5°C 73.8°F23.2°C 73% 12.7 mph NE20.4 kmh NE 16.1 mph25.9 kmh 30.02 in1016.6 mb - 0.00 in0.0 mm 0.00 in0.0 mm
09:30 AM 83.4°F28.6°C 74.2°F23.4°C 74% 6.9 mph E11.1 kmh E 11.5 mph18.5 kmh 30.02 in1016.6 mb - 0.00 in0.0 mm 0.00 in0.0 mm
09:40 AM 83.2°F28.4°C 74.1°F23.4°C 74% 9.2 mph NE14.8 kmh NE 13.8 mph22.2 kmh 30.02 in1016.6 mb - 0.00 in0.0 mm 0.00 in0.0 mm
09:50 AM 83.2°F28.4°C 74.5°F23.6°C 75% 5.8 mph ENE9.3 kmh ENE 12.7 mph20.4 kmh 30.02 in1016.6 mb - 0.00 in0.0 mm 0.00 in0.0 mm
10:00 AM 83.8°F28.8°C 74.2°F23.4°C 73% 6.9 mph E11.1 kmh E 17.3 mph27.8 kmh 30.02 in1016.6 mb - 0.00 in0.0 mm 0.00 in0.0 mm
10:10 AM 84.1°F28.9°C 73.3°F22.9°C 70% 9.2 mph ENE14.8 kmh ENE 11.5 mph18.5 kmh 30.02 in1016.6 mb - 0.00 in0.0 mm 0.00 in0.0 mm
10:20 AM 84.2°F29.0°C 73.7°F23.2°C 71% 8.1 mph E13.0 kmh E 16.1 mph25.9 kmh 30.02 in1016.6 mb - 0.00 in0.0 mm 0.00 in0.0 mm
10:30 AM 84.3°F29.1°C 73.0°F22.8°C 69% 8.1 mph E13.0 kmh E 15.0 mph24.1 kmh 30.02 in1016.6 mb - 0.00 in0.0 mm 0.00 in0.0 mm
10:40 AM 84.4°F29.1°C 73.5°F23.1°C 70% 8.1 mph E13.0 kmh E 12.7 mph20.4 kmh 30.02 in1016.6 mb - 0.00 in0.0 mm 0.00 in0.0 mm
10:50 AM 84.6°F29.2°C 73.8°F23.2°C 70% 4.6 mph ENE7.4 kmh ENE 6.9 mph11.1 kmh 30.02 in1016.6 mb - 0.00 in0.0 mm 0.00 in0.0 mm
11:00 AM 85.1°F29.5°C 73.8°F23.2°C 69% 8.1 mph E13.0 kmh E 12.7 mph20.4 kmh 30.02 in1016.6 mb - 0.00 in0.0 mm 0.00 in0.0 mm
11:10 AM 84.9°F29.4°C 73.2°F22.9°C 68% 9.2 mph ENE14.8 kmh ENE 11.5 mph18.5 kmh 30.01 in1016.3 mb - 0.00 in0.0 mm 0.00 in0.0 mm
11:20 AM 84.6°F29.2°C 72.9°F22.7°C 68% 6.9 mph E11.1 kmh E 11.5 mph18.5 kmh 30.01 in1016.3 mb - 0.00 in0.0 mm 0.00 in0.0 mm
11:30 AM 85.2°F29.6°C 74.3°F23.5°C 70% 4.6 mph E7.4 kmh E 11.5 mph18.5 kmh 30.01 in1016.3 mb - 0.00 in0.0 mm 0.00 in0.0 mm
11:40 AM 84.5°F29.2°C 74.5°F23.6°C 72% 4.6 mph ENE7.4 kmh ENE 12.7 mph20.4 kmh 30.00 in1015.9 mb - 0.00 in0.0 mm 0.00 in0.0 mm
11:50 AM 84.5°F29.2°C 73.6°F23.1°C 70% 6.9 mph E11.1 kmh E 11.5 mph18.5 kmh 30.00 in1015.9 mb - 0.00 in0.0 mm 0.00 in0.0 mm
12:00 PM 84.6°F29.2°C 73.7°F23.2°C 70% 6.9 mph E11.1 kmh E 10.4 mph16.7 kmh 30.00 in1015.9 mb - 0.00 in0.0 mm 0.00 in0.0 mm
12:10 PM 84.5°F29.2°C 73.7°F23.2°C 70% 10.4 mph E16.7 kmh E 17.3 mph27.8 kmh 29.99 in1015.6 mb - 0.00 in0.0 mm 0.00 in0.0 mm
12:20 PM 83.9°F28.8°C 74.3°F23.5°C 73% 5.8 mph E9.3 kmh E 10.4 mph16.7 kmh 29.99 in1015.6 mb - 0.00 in0.0 mm 0.00 in0.0 mm
12:30 PM 82.9°F28.3°C 74.5°F23.6°C 76% 8.1 mph NE13.0 kmh NE 11.5 mph18.5 kmh 29.99 in1015.6 mb - 0.00 in0.0 mm 0.00 in0.0 mm
12:40 PM 83.7°F28.7°C 74.6°F23.7°C 74% 11.5 mph E18.5 kmh E 16.1 mph25.9 kmh 29.99 in1015.6 mb - 0.00 in0.0 mm 0.00 in0.0 mm
12:50 PM 84.5°F29.2°C 73.6°F23.1°C 70% 9.2 mph E14.8 kmh E 12.7 mph20.4 kmh 29.98 in1015.2 mb - 0.00 in0.0 mm 0.00 in0.0 mm
01:00 PM 84.5°F29.2°C 73.6°F23.1°C 70% 6.9 mph E11.1 kmh E 15.0 mph24.1 kmh 29.98 in1015.2 mb - 0.00 in0.0 mm 0.00 in0.0 mm
01:10 PM 83.8°F28.8°C 73.4°F23.0°C 71% 6.9 mph E11.1 kmh E 18.4 mph29.6 kmh 29.98 in1015.2 mb - 0.00 in0.0 mm 0.00 in0.0 mm
01:20 PM 84.6°F29.2°C 74.2°F23.4°C 71% 11.5 mph E18.5 kmh E 15.0 mph24.1 kmh 29.98 in1015.2 mb - 0.00 in0.0 mm 0.00 in0.0 mm
01:30 PM 84.5°F29.2°C 73.7°F23.2°C 70% 11.5 mph NE18.5 kmh NE 23.0 mph37.0 kmh 29.97 in1014.9 mb - 0.00 in0.0 mm 0.00 in0.0 mm
01:40 PM 83.9°F28.8°C 73.1°F22.8°C 70% 12.7 mph ENE20.4 kmh ENE 16.1 mph25.9 kmh 29.97 in1014.9 mb - 0.00 in0.0 mm 0.00 in0.0 mm
01:50 PM 84.5°F29.2°C 73.2°F22.9°C 69% 9.2 mph E14.8 kmh E 18.4 mph29.6 kmh 29.97 in1014.9 mb - 0.00 in0.0 mm 0.00 in0.0 mm
02:00 PM 84.1°F28.9°C 72.0°F22.2°C 67% 9.2 mph ENE14.8 kmh ENE 15.0 mph24.1 kmh 29.97 in1014.9 mb - 0.00 in0.0 mm 0.00 in0.0 mm
02:10 PM 84.5°F29.2°C 72.3°F22.4°C 67% 9.2 mph E14.8 kmh E 15.0 mph24.1 kmh 29.96 in1014.6 mb - 0.00 in0.0 mm 0.00 in0.0 mm
02:20 PM 84.7°F29.3°C 72.9°F22.7°C 68% 9.2 mph E14.8 kmh E 16.1 mph25.9 kmh 29.96 in1014.6 mb - 0.00 in0.0 mm 0.00 in0.0 mm
02:30 PM 84.3°F29.1°C 73.0°F22.8°C 69% 5.8 mph E9.3 kmh E 16.1 mph25.9 kmh 29.96 in1014.6 mb - 0.00 in0.0 mm 0.00 in0.0 mm
02:40 PM 84.0°F28.9°C 72.3°F22.4°C 68% 8.1 mph E13.0 kmh E 17.3 mph27.8 kmh 29.96 in1014.6 mb - 0.00 in0.0 mm 0.00 in0.0 mm
02:50 PM 83.9°F28.8°C 72.7°F22.6°C 69% 10.4 mph NE16.7 kmh NE 12.7 mph20.4 kmh 29.96 in1014.6 mb - 0.00 in0.0 mm 0.00 in0.0 mm
03:00 PM 83.1°F28.4°C 72.7°F22.6°C 71% 12.7 mph E20.4 kmh E 18.4 mph29.6 kmh 29.96 in1014.6 mb - 0.00 in0.0 mm 0.00 in0.0 mm
03:10 PM 83.3°F28.5°C 72.5°F22.5°C 70% 10.4 mph E16.7 kmh E 15.0 mph24.1 kmh 29.96 in1014.6 mb - 0.00 in0.0 mm 0.00 in0.0 mm
03:20 PM 83.5°F28.6°C 73.1°F22.8°C 71% 5.8 mph E9.3 kmh E 15.0 mph24.1 kmh 29.96 in1014.6 mb - 0.00 in0.0 mm 0.00 in0.0 mm
03:30 PM 84.0°F28.9°C 73.2°F22.9°C 70% 6.9 mph E11.1 kmh E 11.5 mph18.5 kmh 29.96 in1014.6 mb - 0.00 in0.0 mm 0.00 in0.0 mm
03:40 PM 83.7°F28.7°C 72.9°F22.7°C 70% 3.5 mph E5.6 kmh E 10.4 mph16.7 kmh 29.96 in1014.6 mb - 0.00 in0.0 mm 0.00 in0.0 mm
03:50 PM 83.0°F28.3°C 72.2°F22.3°C 70% 6.9 mph ESE11.1 kmh ESE 11.5 mph18.5 kmh 29.96 in1014.6 mb - 0.00 in0.0 mm 0.00 in0.0 mm
04:00 PM 83.1°F28.4°C 73.5°F23.1°C 73% 5.8 mph ENE9.3 kmh ENE 13.8 mph22.2 kmh 29.96 in1014.6 mb - 0.00 in0.0 mm 0.00 in0.0 mm
04:10 PM 83.0°F28.3°C 73.4°F23.0°C 73% 8.1 mph ENE13.0 kmh ENE 16.1 mph25.9 kmh 29.96 in1014.6 mb - 0.00 in0.0 mm 0.00 in0.0 mm
04:20 PM 83.5°F28.6°C 73.1°F22.8°C 71% 5.8 mph E9.3 kmh E 12.7 mph20.4 kmh 29.96 in1014.6 mb - 0.00 in0.0 mm 0.00 in0.0 mm
04:30 PM 83.2°F28.4°C 72.8°F22.7°C 71% 8.1 mph ENE13.0 kmh ENE 11.5 mph18.5 kmh 29.95 in1014.2 mb - 0.00 in0.0 mm 0.00 in0.0 mm
04:40 PM 83.0°F28.3°C 72.7°F22.6°C 71% 8.1 mph ENE13.0 kmh ENE 11.5 mph18.5 kmh 29.95 in1014.2 mb - 0.00 in0.0 mm 0.00 in0.0 mm
04:50 PM 82.9°F28.3°C 72.9°F22.7°C 72% 5.8 mph E9.3 kmh E 11.5 mph18.5 kmh 29.95 in1014.2 mb - 0.00 in0.0 mm 0.00 in0.0 mm
05:00 PM 82.8°F28.2°C 72.8°F22.7°C 72% 8.1 mph ENE13.0 kmh ENE 12.7 mph20.4 kmh 29.95 in1014.2 mb - 0.00 in0.0 mm 0.00 in0.0 mm
05:10 PM 82.7°F28.2°C 73.2°F22.9°C 73% 6.9 mph E11.1 kmh E 8.1 mph13.0 kmh 29.95 in1014.2 mb - 0.00 in0.0 mm 0.00 in0.0 mm
05:20 PM 82.4°F28.0°C 73.3°F22.9°C 74% 8.1 mph E13.0 kmh E 11.5 mph18.5 kmh 29.95 in1014.2 mb - 0.00 in0.0 mm 0.00 in0.0 mm
05:30 PM 82.0°F27.8°C 72.5°F22.5°C 73% 3.5 mph E5.6 kmh E 10.4 mph16.7 kmh 29.95 in1014.2 mb - 0.00 in0.0 mm 0.00 in0.0 mm
05:40 PM 82.2°F27.9°C 72.7°F22.6°C 73% 6.9 mph E11.1 kmh E 11.5 mph18.5 kmh 29.96 in1014.6 mb - 0.00 in0.0 mm 0.00 in0.0 mm
05:50 PM 81.6°F27.6°C 72.5°F22.5°C 74% 9.2 mph NE14.8 kmh NE 18.4 mph29.6 kmh 29.96 in1014.6 mb - 0.00 in0.0 mm 0.00 in0.0 mm
06:00 PM 81.5°F27.5°C 72.4°F22.4°C 74% 6.9 mph ENE11.1 kmh ENE 13.8 mph22.2 kmh 29.96 in1014.6 mb - 0.00 in0.0 mm 0.00 in0.0 mm
06:10 PM 81.5°F27.5°C 72.8°F22.7°C 75% 5.8 mph NE9.3 kmh NE 10.4 mph16.7 kmh 29.96 in1014.6 mb - 0.00 in0.0 mm 0.00 in0.0 mm
06:20 PM 81.3°F27.4°C 73.0°F22.8°C 76% 5.8 mph E9.3 kmh E 13.8 mph22.2 kmh 29.97 in1014.9 mb - 0.00 in0.0 mm 0.00 in0.0 mm
06:30 PM 81.1°F27.3°C 72.8°F22.7°C 76% 4.6 mph ENE7.4 kmh ENE 11.5 mph18.5 kmh 29.97 in1014.9 mb - 0.00 in0.0 mm 0.00 in0.0 mm
06:40 PM 81.0°F27.2°C 73.1°F22.8°C 77% 6.9 mph ENE11.1 kmh ENE 11.5 mph18.5 kmh 29.97 in1014.9 mb - 0.00 in0.0 mm 0.00 in0.0 mm
06:50 PM 81.0°F27.2°C 73.1°F22.8°C 77% 2.3 mph ENE3.7 kmh ENE 6.9 mph11.1 kmh 29.97 in1014.9 mb - 0.00 in0.0 mm 0.00 in0.0 mm
07:00 PM 80.7°F27.1°C 72.8°F22.7°C 77% 4.6 mph E7.4 kmh E 10.4 mph16.7 kmh 29.98 in1015.2 mb - 0.00 in0.0 mm 0.00 in0.0 mm
07:10 PM 80.6°F27.0°C 72.7°F22.6°C 77% 5.8 mph ENE9.3 kmh ENE 11.5 mph18.5 kmh 29.98 in1015.2 mb - 0.00 in0.0 mm 0.00 in0.0 mm
07:20 PM 80.5°F26.9°C 73.0°F22.8°C 78% 4.6 mph E7.4 kmh E 8.1 mph13.0 kmh 29.98 in1015.2 mb - 0.00 in0.0 mm 0.00 in0.0 mm
07:30 PM 80.4°F26.9°C 72.9°F22.7°C 78% 6.9 mph ENE11.1 kmh ENE 10.4 mph16.7 kmh 29.98 in1015.2 mb - 0.00 in0.0 mm 0.00 in0.0 mm
07:40 PM 80.4°F26.9°C 72.9°F22.7°C 78% 6.9 mph E11.1 kmh E 10.4 mph16.7 kmh 29.98 in1015.2 mb - 0.00 in0.0 mm 0.00 in0.0 mm
07:50 PM 80.2°F26.8°C 72.4°F22.4°C 77% 3.5 mph ENE5.6 kmh ENE 12.7 mph20.4 kmh 29.99 in1015.6 mb - 0.00 in0.0 mm 0.00 in0.0 mm
08:00 PM 80.2°F26.8°C 72.7°F22.6°C 78% 4.6 mph ENE7.4 kmh ENE 9.2 mph14.8 kmh 29.99 in1015.6 mb - 0.00 in0.0 mm 0.00 in0.0 mm
08:10 PM 80.2°F26.8°C 72.7°F22.6°C 78% 4.6 mph E7.4 kmh E 10.4 mph16.7 kmh 29.99 in1015.6 mb - 0.00 in0.0 mm 0.00 in0.0 mm
08:20 PM 80.2°F26.8°C 72.7°F22.6°C 78% 6.9 mph ENE11.1 kmh ENE 10.4 mph16.7 kmh 29.99 in1015.6 mb - 0.00 in0.0 mm 0.00 in0.0 mm
08:30 PM 80.0°F26.7°C 72.1°F22.3°C 77% 4.6 mph ENE7.4 kmh ENE 6.9 mph11.1 kmh 30.00 in1015.9 mb - 0.00 in0.0 mm 0.00 in0.0 mm
08:40 PM 80.0°F26.7°C 72.5°F22.5°C 78% 4.6 mph E7.4 kmh E 15.0 mph24.1 kmh 30.00 in1015.9 mb - 0.00 in0.0 mm 0.00 in0.0 mm
09:00 PM 80.0°F26.7°C 72.1°F22.3°C 77% 6.9 mph ENE11.1 kmh ENE 12.7 mph20.4 kmh 30.00 in1015.9 mb - 0.00 in0.0 mm 0.00 in0.0 mm
09:10 PM 80.0°F26.7°C 72.1°F22.3°C 77% 6.9 mph ENE11.1 kmh ENE 11.5 mph18.5 kmh 30.00 in1015.9 mb - 0.00 in0.0 mm 0.00 in0.0 mm
09:20 PM 79.9°F26.6°C 72.5°F22.5°C 78% 4.6 mph ENE7.4 kmh ENE 9.2 mph14.8 kmh 30.00 in1015.9 mb - 0.00 in0.0 mm 0.00 in0.0 mm
09:30 PM 79.8°F26.6°C 72.3°F22.4°C 78% 6.9 mph ENE11.1 kmh ENE 11.5 mph18.5 kmh 30.00 in1015.9 mb - 0.00 in0.0 mm 0.00 in0.0 mm
09:40 PM 79.7°F26.5°C 72.3°F22.4°C 78% 6.9 mph ENE11.1 kmh ENE 12.7 mph20.4 kmh 30.00 in1015.9 mb - 0.00 in0.0 mm 0.00 in0.0 mm
09:50 PM 79.7°F26.5°C 72.2°F22.3°C 78% 6.9 mph ENE11.1 kmh ENE 12.7 mph20.4 kmh 30.01 in1016.3 mb - 0.00 in0.0 mm 0.00 in0.0 mm
10:00 PM 79.8°F26.6°C 71.9°F22.2°C 77% 8.1 mph NE13.0 kmh NE 13.8 mph22.2 kmh 30.01 in1016.3 mb - 0.00 in0.0 mm 0.00 in0.0 mm
10:10 PM 79.7°F26.5°C 71.9°F22.2°C 77% 8.1 mph ENE13.0 kmh ENE 11.5 mph18.5 kmh 30.01 in1016.3 mb - 0.00 in0.0 mm 0.00 in0.0 mm
10:20 PM 79.7°F26.5°C 72.2°F22.3°C 78% 6.9 mph ENE11.1 kmh ENE 9.2 mph14.8 kmh 30.01 in1016.3 mb - 0.00 in0.0 mm 0.00 in0.0 mm
10:40 PM 79.8°F26.6°C 72.4°F22.4°C 78% 8.1 mph NE13.0 kmh NE 12.7 mph20.4 kmh 30.01 in1016.3 mb - 0.00 in0.0 mm 0.00 in0.0 mm
10:50 PM 79.8°F26.6°C 72.3°F22.4°C 78% 6.9 mph ENE11.1 kmh ENE 11.5 mph18.5 kmh 30.01 in1016.3 mb - 0.00 in0.0 mm 0.00 in0.0 mm
11:00 PM 79.8°F26.6°C 72.3°F22.4°C 78% 5.8 mph ENE9.3 kmh ENE 10.4 mph16.7 kmh 30.01 in1016.3 mb - 0.00 in0.0 mm 0.00 in0.0 mm
11:10 PM 79.6°F26.4°C 72.1°F22.3°C 78% 6.9 mph ENE11.1 kmh ENE 12.7 mph20.4 kmh 30.01 in1016.3 mb - 0.00 in0.0 mm 0.00 in0.0 mm
11:20 PM 79.6°F26.4°C 72.2°F22.3°C 78% 6.9 mph ENE11.1 kmh ENE 17.3 mph27.8 kmh 30.01 in1016.3 mb - 0.00 in0.0 mm 0.00 in0.0 mm
11:30 PM 79.6°F26.4°C 72.5°F22.5°C 79% 4.6 mph NE7.4 kmh NE 13.8 mph22.2 kmh 30.01 in1016.3 mb - 0.00 in0.0 mm 0.00 in0.0 mm
11:40 PM 79.5°F26.4°C 72.0°F22.2°C 78% 4.6 mph NE7.4 kmh NE 11.5 mph18.5 kmh 30.00 in1015.9 mb - 0.00 in0.0 mm 0.00 in0.0 mm
11:50 PM 79.4°F26.3°C 72.3°F22.4°C 79% 4.6 mph ENE7.4 kmh ENE 9.2 mph14.8 kmh 30.01 in1016.3 mb - 0.00 in0.0 mm 0.00 in0.0 mm